createdAt,value
2019-05-23T00:00:29.988Z,97.
2019-05-23T00:01:29.974Z,96.
2019-05-23T00:02:29.971Z,95.
2019-05-23T00:03:30.010Z,96.
2019-05-23T00:04:29.949Z,95.
2019-05-23T00:05:29.933Z,100.
2019-05-23T00:06:29.929Z,84.
2019-05-23T00:07:29.910Z,97.
2019-05-23T00:08:29.904Z,103.
2019-05-23T00:09:29.948Z,90.
2019-05-23T00:10:29.879Z,104.
2019-05-23T00:11:29.868Z,103.
2019-05-23T00:12:29.862Z,88.
2019-05-23T00:13:29.848Z,94.
2019-05-23T00:14:30.085Z,100.
2019-05-23T00:15:29.827Z,99.
2019-05-23T00:16:29.814Z,102.
2019-05-23T00:17:29.800Z,103.
2019-05-23T00:18:29.791Z,98.
2019-05-23T00:19:29.781Z,99.
2019-05-23T00:20:29.821Z,97.
2019-05-23T00:21:29.761Z,99.
2019-05-23T00:22:29.756Z,100.
2019-05-23T00:23:29.737Z,101.
2019-05-23T00:24:29.731Z,95.
2019-05-23T00:25:29.720Z,101.
2019-05-23T00:26:29.752Z,99.00
2019-05-23T00:27:29.695Z,91.00
2019-05-23T00:28:29.685Z,98.00
2019-05-23T00:29:29.672Z,96.50
2019-05-23T00:30:29.665Z,88.50
2019-05-23T00:31:29.650Z,95.00
2019-05-23T00:34:29.781Z,100.80
2019-05-23T00:35:29.607Z,95.09
2019-05-23T00:36:29.598Z,93.59
2019-05-23T00:37:29.585Z,102.30
2019-05-23T00:38:29.574Z,99.59
2019-05-23T00:39:29.565Z,98.59
2019-05-23T00:40:29.599Z,98.19
2019-05-23T00:41:29.571Z,94.69
2019-05-23T00:42:29.533Z,102.80
2019-05-23T00:43:29.526Z,100.30
2019-05-23T00:44:29.511Z,100.50
2019-05-23T00:45:29.499Z,102.00
2019-05-23T00:46:29.537Z,103.19
2019-05-23T00:47:29.475Z,101.90
2019-05-23T00:48:29.465Z,92.59
2019-05-23T00:49:29.454Z,103.59
2019-05-23T00:50:29.445Z,100.19
2019-05-23T00:51:29.433Z,105.19
2019-05-23T00:52:29.574Z,102.59
2019-05-23T00:53:29.410Z,95.59
2019-05-23T00:54:29.400Z,96.69
2019-05-23T00:55:29.394Z,97.69
2019-05-23T00:56:29.379Z,101.00
2019-05-23T00:57:29.370Z,102.80
2019-05-23T00:58:29.411Z,98.80
2019-05-23T00:59:29.344Z,99.30
2019-05-23T01:00:29.337Z,96.80
2019-05-23T01:01:29.327Z,103.00
2019-05-23T01:02:29.315Z,104.40
2019-05-23T01:03:29.528Z,100.40
2019-05-23T01:04:29.341Z,101.80
2019-05-23T01:05:29.281Z,102.50
2019-05-23T01:06:29.271Z,93.59
2019-05-23T01:07:29.322Z,99.59
2019-05-23T01:08:29.249Z,92.69
2019-05-23T01:09:29.239Z,103.09
2019-05-23T01:10:29.275Z,93.59
2019-05-23T01:11:29.215Z,101.50
2019-05-23T01:12:29.204Z,102.19
2019-05-23T01:13:29.193Z,103.40
2019-05-23T01:14:29.183Z,97.90
2019-05-23T01:15:29.173Z,101.30
2019-05-23T01:16:29.260Z,104.59
2019-05-23T01:17:29.149Z,100.90
2019-05-23T01:18:29.138Z,103.69
2019-05-23T01:19:29.130Z,102.50
2019-05-23T01:20:29.118Z,99.50
2019-05-23T01:21:29.142Z,97.69
2019-05-23T01:22:29.198Z,99.19
2019-05-23T01:23:29.085Z,99.69
2019-05-23T01:24:29.079Z,100.90
2019-05-23T01:25:29.063Z,98.69
2019-05-23T01:26:29.053Z,96.69
2019-05-23T01:27:29.043Z,98.40
2019-05-23T01:28:29.085Z,102.09
2019-05-23T01:29:37.377Z,98.30
2019-05-23T01:30:53.822Z,96.19
2019-05-23T01:31:53.812Z,97.80
2019-05-23T01:32:53.800Z,94.59
2019-05-23T01:33:53.841Z,95.19
2019-05-23T01:34:53.777Z,89.50
2019-05-23T01:35:53.768Z,91.90
2019-05-23T01:36:53.756Z,89.30
2019-05-23T01:37:53.776Z,92.09
2019-05-23T01:38:53.737Z,91.30
2019-05-23T01:39:53.776Z,83.69
2019-05-23T01:40:53.714Z,82.30
2019-05-23T01:41:53.789Z,74.69
2019-05-23T01:42:53.692Z,80.09
2019-05-23T01:43:53.680Z,80.09
2019-05-23T01:44:53.670Z,80.09
2019-05-23T01:45:53.758Z,74.00
2019-05-23T01:46:53.645Z,76.69
2019-05-23T01:47:53.636Z,73.59
2019-05-23T01:48:53.625Z,71.50
2019-05-23T01:49:53.615Z,69.50
2019-05-23T01:50:53.608Z,71.09
2019-05-23T01:51:53.746Z,70.40
2019-05-23T01:52:53.585Z,61.09
2019-05-23T01:53:53.571Z,67.19
2019-05-23T01:54:53.564Z,65.00
2019-05-23T01:55:53.552Z,68.40
2019-05-23T01:56:53.542Z,66.50
2019-05-23T01:57:53.577Z,62.59
2019-05-23T01:58:53.517Z,64.69
2019-05-23T02:00:08.262Z,60.59
2019-05-23T02:00:54.593Z,61.29
2019-05-23T02:01:53.486Z,66.09
2019-05-23T02:02:53.476Z,64.59
2019-05-23T02:03:53.513Z,64.80
2019-05-23T02:04:53.464Z,57.90
2019-05-23T02:05:53.442Z,59.70
2019-05-23T02:06:53.432Z,59.79
2019-05-23T02:07:53.421Z,59.09
2019-05-23T02:08:53.410Z,56.70
2019-05-23T02:09:53.799Z,59.29
2019-05-23T02:10:53.387Z,59.79
2019-05-23T02:11:53.384Z,57.59
2019-05-23T02:12:53.367Z,57.00
2019-05-23T02:13:53.355Z,53.50
2019-05-23T02:14:53.348Z,50.70
2019-05-23T02:15:53.383Z,53.09
2019-05-23T02:16:53.325Z,54.79
2019-05-23T02:17:53.312Z,58.00
2019-05-23T02:18:53.305Z,58.59
2019-05-23T02:19:53.292Z,56.40
2019-05-23T02:20:53.280Z,57.29
2019-05-23T02:21:53.320Z,59.09
2019-05-23T02:22:53.257Z,53.79
2019-05-23T02:23:53.245Z,50.50
2019-05-23T02:24:53.238Z,55.79
2019-05-23T02:25:53.222Z,62.59
2019-05-23T02:26:53.213Z,56.90
2019-05-23T02:27:53.358Z,59.40
2019-05-23T02:28:53.193Z,58.09
2019-05-23T02:29:53.185Z,60.00
2019-05-23T02:30:53.172Z,58.00
2019-05-23T02:31:53.159Z,58.90
2019-05-23T02:32:53.148Z,55.59
2019-05-23T02:33:53.193Z,57.70
2019-05-23T02:34:53.130Z,60.59
2019-05-23T02:35:53.114Z,58.59
2019-05-23T02:36:53.105Z,60.40
2019-05-23T02:37:53.096Z,59.09
2019-05-23T02:38:53.082Z,55.00
2019-05-23T02:40:53.114Z,52.79
2019-05-23T02:41:53.059Z,57.79
2019-05-23T02:42:53.044Z,58.29
2019-05-23T02:43:53.027Z,57.90
2019-05-23T02:44:53.017Z,55.00
2019-05-23T02:45:53.043Z,53.09
2019-05-23T02:46:53.147Z,56.70
2019-05-23T02:47:52.985Z,55.20
2019-05-23T02:48:52.977Z,55.70
2019-05-23T02:49:52.964Z,52.50
2019-05-23T02:50:52.953Z,55.40
2019-05-23T02:51:52.945Z,55.09
2019-05-23T02:52:53.032Z,53.59
2019-05-23T02:53:52.922Z,54.20
2019-05-23T02:54:52.911Z,54.50
2019-05-23T02:55:52.903Z,54.20
2019-05-23T02:56:52.890Z,50.29
2019-05-23T02:57:52.941Z,49.00
2019-05-23T02:58:52.868Z,54.90
2019-05-23T02:59:52.862Z,56.50
2019-05-23T03:00:55.297Z,54.59
2019-05-23T03:01:52.841Z,52.50
2019-05-23T03:02:52.824Z,54.59
2019-05-23T03:03:52.916Z,53.00
2019-05-23T03:04:52.808Z,48.00
2019-05-23T03:05:52.799Z,49.00
2019-05-23T03:06:52.797Z,48.00
2019-05-23T03:07:52.806Z,53.70
2019-05-23T03:08:53.162Z,52.29
2019-05-23T03:09:52.755Z,49.59
2019-05-23T03:10:52.760Z,53.59
2019-05-23T03:11:52.733Z,54.29
2019-05-23T03:12:52.723Z,53.29
2019-05-23T03:13:52.715Z,52.00
2019-05-23T03:14:52.755Z,49.20
2019-05-23T03:15:52.694Z,53.29
2019-05-23T03:16:52.681Z,50.00
2019-05-23T03:17:52.710Z,49.70
2019-05-23T03:18:52.659Z,53.09
2019-05-23T03:20:52.696Z,56.40
2019-05-23T03:21:52.632Z,55.20
2019-05-23T03:22:52.617Z,54.50
2019-05-23T03:23:52.608Z,54.29
2019-05-23T03:24:52.600Z,54.90
2019-05-23T03:25:52.637Z,57.00
2019-05-23T03:26:52.580Z,56.00
2019-05-23T03:27:52.568Z,56.40
2019-05-23T03:28:52.554Z,51.90
2019-05-23T03:29:52.544Z,46.79
2019-05-23T03:30:52.533Z,56.70
2019-05-23T03:32:52.689Z,56.09
2019-05-23T03:33:52.527Z,52.40
2019-05-23T03:34:52.491Z,48.20
2019-05-23T03:35:52.480Z,46.59
2019-05-23T03:36:52.468Z,49.20
2019-05-23T03:37:52.459Z,49.90
2019-05-23T03:38:52.494Z,51.70
2019-05-23T03:39:52.433Z,51.70
2019-05-23T03:40:52.430Z,49.00
2019-05-23T03:41:52.417Z,50.50
2019-05-23T03:42:52.403Z,49.79
2019-05-23T03:43:52.394Z,50.70
2019-05-23T03:44:52.432Z,48.59
2019-05-23T03:45:52.372Z,46.79
2019-05-23T03:46:52.361Z,49.79
2019-05-23T03:47:52.348Z,49.00
2019-05-23T03:48:52.338Z,48.70
2019-05-23T03:49:52.325Z,49.40
2019-05-23T03:50:52.476Z,52.20
2019-05-23T03:51:52.305Z,49.29
2019-05-23T03:52:52.297Z,49.79
2019-05-23T03:53:52.283Z,48.50
2019-05-23T03:54:52.270Z,50.00
2019-05-23T03:55:52.264Z,49.20
2019-05-23T03:56:52.301Z,48.50
2019-05-23T03:57:52.238Z,46.29
2019-05-23T03:58:52.228Z,49.09
2019-05-23T03:59:52.216Z,47.00
2019-05-23T04:00:52.207Z,45.79
2019-05-23T04:01:52.196Z,45.20
2019-05-23T04:02:52.253Z,45.59
2019-05-23T04:03:52.180Z,42.70
2019-05-23T04:04:52.162Z,43.90
2019-05-23T04:05:52.152Z,43.59
2019-05-23T04:06:52.141Z,41.40
2019-05-23T04:07:52.131Z,40.00
2019-05-23T04:08:52.269Z,44.09
2019-05-23T04:09:52.116Z,40.50
2019-05-23T04:10:52.535Z,36.20
2019-05-23T04:11:52.088Z,35.70
2019-05-23T04:12:52.073Z,42.50
2019-05-23T04:13:52.064Z,39.20
2019-05-23T04:14:52.104Z,41.09
2019-05-23T04:15:52.041Z,41.79
2019-05-23T04:16:52.038Z,39.59
2019-05-23T04:17:52.025Z,38.59
2019-05-23T04:18:52.014Z,40.09
2019-05-23T04:19:51.997Z,39.40
2019-05-23T04:20:52.042Z,39.50
2019-05-23T04:21:51.981Z,41.00
2019-05-23T04:22:51.964Z,40.50
2019-05-23T04:23:51.955Z,40.59
2019-05-23T04:24:51.944Z,39.79
2019-05-23T04:25:52.009Z,40.09
2019-05-23T04:26:52.074Z,40.50
2019-05-23T04:27:51.909Z,42.29
2019-05-23T04:28:51.900Z,41.09
2019-05-23T04:29:51.888Z,36.29
2019-05-23T04:30:51.886Z,42.59
2019-05-23T04:32:06.903Z,40.90
2019-05-23T04:33:16.773Z,43.00
2019-05-23T04:34:16.758Z,42.00
2019-05-23T04:35:16.746Z,43.20
2019-05-23T04:36:16.737Z,41.70
2019-05-23T04:37:16.727Z,43.59
2019-05-23T04:38:16.769Z,43.70
2019-05-23T04:39:16.715Z,44.00
2019-05-23T04:40:16.692Z,42.09
2019-05-23T04:41:16.686Z,43.09
2019-05-23T04:42:16.676Z,43.70
2019-05-23T04:43:16.661Z,44.29
2019-05-23T04:44:16.800Z,43.70
2019-05-23T04:45:16.638Z,46.59
2019-05-23T04:46:16.633Z,44.59
2019-05-23T04:47:16.618Z,47.00
2019-05-23T04:48:16.606Z,44.29
2019-05-23T04:49:16.597Z,46.00
2019-05-23T04:50:16.634Z,46.79
2019-05-23T04:51:16.573Z,44.90
2019-05-23T04:52:16.573Z,49.59
2019-05-23T04:53:16.558Z,49.40
2019-05-23T04:54:16.540Z,46.70
2019-05-23T04:55:16.531Z,49.09
2019-05-23T04:56:16.570Z,48.59
2019-05-23T04:57:16.508Z,47.79
2019-05-23T04:58:16.500Z,50.09
2019-05-23T04:59:16.487Z,46.90
2019-05-23T05:00:16.474Z,50.09
2019-05-23T05:01:16.466Z,49.09
2019-05-23T05:03:18.082Z,49.29
2019-05-23T05:04:16.435Z,51.29
2019-05-23T05:05:16.425Z,51.00
2019-05-23T05:06:16.414Z,53.40
2019-05-23T05:07:16.405Z,52.09
2019-05-23T05:08:16.574Z,54.40
2019-05-23T05:09:16.480Z,54.20
2019-05-23T05:10:16.371Z,53.29
2019-05-23T05:11:16.358Z,52.09
2019-05-23T05:12:16.348Z,50.00
2019-05-23T05:13:16.337Z,52.50
2019-05-23T05:14:16.334Z,55.50
2019-05-23T05:15:16.366Z,54.79
2019-05-23T05:16:16.304Z,51.00
2019-05-23T05:17:16.295Z,53.59
2019-05-23T05:18:16.294Z,44.90
2019-05-23T05:19:16.287Z,54.09
2019-05-23T05:20:16.814Z,53.90
2019-05-23T05:21:16.258Z,46.90
2019-05-23T05:22:16.244Z,52.20
2019-05-23T05:23:16.234Z,55.59
2019-05-23T05:24:16.222Z,55.50
2019-05-23T05:25:16.210Z,56.40
2019-05-23T05:26:16.253Z,52.59
2019-05-23T05:27:16.191Z,53.20
2019-05-23T05:28:16.182Z,52.29
2019-05-23T05:29:16.171Z,52.59
2019-05-23T05:30:16.160Z,53.70
2019-05-23T05:31:16.153Z,51.29
2019-05-23T05:32:16.269Z,48.00
2019-05-23T05:33:16.130Z,46.59
2019-05-23T05:34:16.120Z,44.90
2019-05-23T05:35:16.113Z,41.00
2019-05-23T05:36:16.139Z,36.79
2019-05-23T05:37:16.107Z,36.00
2019-05-23T05:38:16.325Z,36.79
2019-05-23T05:39:16.066Z,34.50
2019-05-23T05:40:16.055Z,34.59
2019-05-23T05:41:16.043Z,34.79
2019-05-23T05:42:16.035Z,35.40
2019-05-23T05:43:16.021Z,34.20
2019-05-23T05:44:16.110Z,33.79
2019-05-23T05:45:16.000Z,29.29
2019-05-23T05:46:15.990Z,30.89
2019-05-23T05:47:15.982Z,28.50
2019-05-23T05:48:15.969Z,29.39
2019-05-23T05:49:15.959Z,28.60
2019-05-23T05:50:15.999Z,29.29
2019-05-23T05:51:15.936Z,28.10
2019-05-23T05:52:15.928Z,28.20
2019-05-23T05:53:15.917Z,28.20
2019-05-23T05:54:15.908Z,26.50
2019-05-23T05:55:15.900Z,27.29
2019-05-23T05:56:16.047Z,26.70
2019-05-23T05:57:15.876Z,25.70
2019-05-23T05:58:15.865Z,25.20
2019-05-23T05:59:15.861Z,28.70
2019-05-23T06:00:15.867Z,25.79
2019-05-23T06:01:31.198Z,26.29
2019-05-23T06:02:17.925Z,25.70
2019-05-23T06:03:15.822Z,26.89
2019-05-23T06:04:15.803Z,28.00
2019-05-23T06:05:15.800Z,28.00
2019-05-23T06:06:15.787Z,30.10
2019-05-23T06:07:15.771Z,28.39
2019-05-23T06:08:15.813Z,26.29
2019-05-23T06:09:15.751Z,26.89
2019-05-23T06:10:15.742Z,27.00
2019-05-23T06:11:15.733Z,30.10
2019-05-23T06:12:15.720Z,31.00
2019-05-23T06:13:15.709Z,29.10
2019-05-23T06:14:15.877Z,31.70
2019-05-23T06:15:15.692Z,31.60
2019-05-23T06:16:15.684Z,28.20
2019-05-23T06:17:15.668Z,29.39
2019-05-23T06:18:15.659Z,29.20
2019-05-23T06:19:15.646Z,29.89
2019-05-23T06:20:15.736Z,29.79
2019-05-23T06:21:15.626Z,29.60
2019-05-23T06:22:15.616Z,29.70
2019-05-23T06:23:15.609Z,29.70
2019-05-23T06:24:15.609Z,28.50
2019-05-23T06:25:15.609Z,28.79
2019-05-23T06:26:15.628Z,29.10
2019-05-23T06:27:15.566Z,31.89
2019-05-23T06:28:15.580Z,30.70
2019-05-23T06:29:15.559Z,30.89
2019-05-23T06:30:15.533Z,29.79
2019-05-23T06:31:15.522Z,30.50
2019-05-23T06:32:15.794Z,32.50
2019-05-23T06:33:23.187Z,35.20
2019-05-23T06:34:16.586Z,35.09
2019-05-23T06:35:15.483Z,33.59
2019-05-23T06:36:15.471Z,33.40
2019-05-23T06:37:15.464Z,33.90
2019-05-23T06:38:15.503Z,33.90
2019-05-23T06:39:15.442Z,30.00
2019-05-23T06:40:15.432Z,34.20
2019-05-23T06:41:15.421Z,31.79
2019-05-23T06:42:15.410Z,32.79
2019-05-23T06:43:15.409Z,31.79
2019-05-23T06:44:15.488Z,29.10
2019-05-23T06:45:15.378Z,30.00
2019-05-23T06:46:15.367Z,32.90
2019-05-23T06:47:15.360Z,32.20
2019-05-23T06:48:15.348Z,31.60
2019-05-23T06:49:15.339Z,32.09
2019-05-23T06:50:15.524Z,31.20
2019-05-23T06:51:15.314Z,30.89
2019-05-23T06:52:15.306Z,27.70
2019-05-23T06:53:15.304Z,28.60
2019-05-23T06:54:15.282Z,27.10
2019-05-23T06:56:15.365Z,28.39
2019-05-23T06:57:15.254Z,28.50
2019-05-23T06:58:15.241Z,32.09
2019-05-23T06:59:15.232Z,30.60
2019-05-23T07:00:15.222Z,31.79
2019-05-23T07:01:15.211Z,35.29
2019-05-23T07:02:15.251Z,35.90
2019-05-23T07:03:15.192Z,33.29
2019-05-23T07:04:15.179Z,31.60
2019-05-23T07:05:15.171Z,29.39
2019-05-23T07:06:15.161Z,28.89
2019-05-23T07:07:15.150Z,30.10
2019-05-23T07:09:16.328Z,32.20
2019-05-23T07:10:15.117Z,32.79
2019-05-23T07:11:15.108Z,32.20
2019-05-23T07:12:15.100Z,30.20
2019-05-23T07:13:15.088Z,31.00
2019-05-23T07:14:15.077Z,32.29
2019-05-23T07:15:15.167Z,30.79
2019-05-23T07:16:15.055Z,30.39
2019-05-23T07:17:15.043Z,30.79
2019-05-23T07:18:15.036Z,30.70
2019-05-23T07:19:15.024Z,26.10
2019-05-23T07:20:15.015Z,29.89
2019-05-23T07:22:18.394Z,27.60
2019-05-23T07:23:14.987Z,26.50
2019-05-23T07:24:14.972Z,28.00
2019-05-23T07:25:14.961Z,27.70
2019-05-23T07:26:14.952Z,25.10
2019-05-23T07:27:15.340Z,26.39
2019-05-23T07:28:15.251Z,28.10
2019-05-23T07:29:14.922Z,28.10
2019-05-23T07:30:14.922Z,29.10
2019-05-23T07:31:14.900Z,28.89
2019-05-23T07:32:14.913Z,28.89
2019-05-23T07:33:14.931Z,27.10
2019-05-23T07:34:14.868Z,27.50
2019-05-23T07:35:14.857Z,26.10
2019-05-23T07:36:14.849Z,31.29
2019-05-23T07:37:14.837Z,24.70
2019-05-23T07:38:14.827Z,24.89
2019-05-23T07:39:14.917Z,24.00
2019-05-23T07:40:14.806Z,22.70
2019-05-23T07:41:14.805Z,23.29
2019-05-23T07:42:14.787Z,22.00
2019-05-23T07:43:14.778Z,22.79
2019-05-23T07:44:14.779Z,22.60
2019-05-23T07:45:14.857Z,23.20
2019-05-23T07:46:14.744Z,24.39
2019-05-23T07:47:14.750Z,22.20
2019-05-23T07:48:14.741Z,23.00
2019-05-23T07:49:14.718Z,23.00
2019-05-23T07:50:14.718Z,25.10
2019-05-23T07:51:14.846Z,24.60
2019-05-23T07:52:14.695Z,21.10
2019-05-23T07:53:14.672Z,23.70
2019-05-23T07:54:14.704Z,21.79
2019-05-23T07:55:14.653Z,24.89
2019-05-23T07:56:14.648Z,23.70
2019-05-23T07:57:14.731Z,21.79
2019-05-23T07:58:14.618Z,22.39
2019-05-23T07:59:14.609Z,23.60
2019-05-23T08:00:14.599Z,21.79
2019-05-23T08:01:14.597Z,22.39
2019-05-23T08:02:14.580Z,23.10
2019-05-23T08:03:14.677Z,23.00
2019-05-23T08:04:21.325Z,20.79
2019-05-23T08:05:15.665Z,22.20
2019-05-23T08:06:14.536Z,22.79
2019-05-23T08:07:14.527Z,23.10
2019-05-23T08:08:14.541Z,23.10
2019-05-23T08:09:14.654Z,21.39
2019-05-23T08:10:30.923Z,22.29
2019-05-23T08:11:39.299Z,20.50
2019-05-23T08:12:39.288Z,19.89
2019-05-23T08:13:39.277Z,20.20
2019-05-23T08:14:39.390Z,21.39
2019-05-23T08:15:39.257Z,18.79
2019-05-23T08:16:39.247Z,19.60
2019-05-23T08:17:39.252Z,18.79
2019-05-23T08:18:39.235Z,18.60
2019-05-23T08:19:48.962Z,16.89
2019-05-23T08:21:04.118Z,18.89
2019-05-23T08:22:04.109Z,20.00
2019-05-23T08:23:04.097Z,18.79
2019-05-23T08:24:04.088Z,21.29
2019-05-23T08:25:04.079Z,20.50
2019-05-23T08:26:04.217Z,22.00
2019-05-23T08:27:04.057Z,21.70
2019-05-23T08:28:04.046Z,21.39
2019-05-23T08:29:24.767Z,22.60
2019-05-23T08:30:05.124Z,21.20
2019-05-23T08:31:04.014Z,19.89
2019-05-23T08:32:04.056Z,20.10
2019-05-23T08:33:04.002Z,20.70
2019-05-23T08:34:03.985Z,18.79
2019-05-23T08:35:03.979Z,20.20
2019-05-23T08:36:03.964Z,18.60
2019-05-23T08:37:03.956Z,17.10
2019-05-23T08:38:03.994Z,18.29
2019-05-23T08:39:03.937Z,18.70
2019-05-23T08:40:03.925Z,18.10
2019-05-23T08:41:03.917Z,18.00
2019-05-23T08:42:03.912Z,17.20
2019-05-23T08:43:03.892Z,18.29
2019-05-23T08:44:04.661Z,18.39
2019-05-23T08:45:03.877Z,18.00
2019-05-23T08:46:03.860Z,18.60
2019-05-23T08:47:03.852Z,17.79
2019-05-23T08:48:03.841Z,17.20
2019-05-23T08:49:03.835Z,16.89
2019-05-23T08:50:03.922Z,16.29
2019-05-23T08:51:03.846Z,17.70
2019-05-23T08:52:03.801Z,17.10
2019-05-23T08:53:03.790Z,17.60
2019-05-23T08:54:03.787Z,17.00
2019-05-23T08:55:03.780Z,17.00
2019-05-23T08:56:17.463Z,16.20
2019-05-23T08:57:04.846Z,17.60
2019-05-23T08:58:03.743Z,17.50
2019-05-23T08:59:03.730Z,16.89
2019-05-23T09:00:03.721Z,15.50
2019-05-23T09:01:03.715Z,16.89
2019-05-23T09:02:03.749Z,17.20
2019-05-23T09:03:03.696Z,16.70
2019-05-23T09:04:03.679Z,12.89
2019-05-23T09:05:06.191Z,17.29
2019-05-23T09:06:03.658Z,16.20
2019-05-23T09:07:03.648Z,15.60
2019-05-23T09:08:03.740Z,15.00
2019-05-23T09:09:03.636Z,14.39
2019-05-23T09:10:03.616Z,14.00
2019-05-23T09:11:03.664Z,13.89
2019-05-23T09:12:03.614Z,15.00
2019-05-23T09:13:03.602Z,14.10
2019-05-23T09:15:03.725Z,15.89
2019-05-23T09:16:03.665Z,16.29
2019-05-23T09:17:03.553Z,17.79
2019-05-23T09:18:03.724Z,16.20
2019-05-23T09:19:03.526Z,15.10
2019-05-23T09:20:03.517Z,14.19
2019-05-23T09:21:03.557Z,15.10
2019-05-23T09:22:03.494Z,14.89
2019-05-23T09:23:03.485Z,15.69
2019-05-23T09:24:03.479Z,15.80
2019-05-23T09:25:03.465Z,14.80
2019-05-23T09:26:03.455Z,16.10
2019-05-23T09:28:03.531Z,15.30
2019-05-23T09:29:03.425Z,14.69
2019-05-23T09:30:03.415Z,14.30
2019-05-23T09:31:03.409Z,15.19
2019-05-23T09:32:03.393Z,15.69
2019-05-23T09:33:03.387Z,15.30
2019-05-23T09:34:03.522Z,15.00
2019-05-23T09:35:19.739Z,13.80
2019-05-23T09:36:04.444Z,12.50
2019-05-23T09:37:03.341Z,13.89
2019-05-23T09:38:03.335Z,14.80
2019-05-23T09:39:03.574Z,14.10
2019-05-23T09:40:03.315Z,13.30
2019-05-23T09:41:03.303Z,13.10
2019-05-23T09:42:03.289Z,14.80
2019-05-23T09:43:03.294Z,14.89
2019-05-23T09:44:03.274Z,15.30
2019-05-23T09:45:03.306Z,14.00
2019-05-23T09:46:03.243Z,14.50
2019-05-23T09:47:03.239Z,13.80
2019-05-23T09:48:03.250Z,14.39
2019-05-23T09:49:03.235Z,15.39
2019-05-23T09:50:03.214Z,15.50
2019-05-23T09:51:03.247Z,18.39
2019-05-23T09:52:03.424Z,18.00
2019-05-23T09:53:03.172Z,18.29
2019-05-23T09:54:03.173Z,23.60
2019-05-23T09:55:03.155Z,23.20
2019-05-23T09:56:03.164Z,20.29
2019-05-23T09:57:03.287Z,18.60
2019-05-23T09:58:03.128Z,18.50
2019-05-23T09:59:03.109Z,16.60
2019-05-23T10:00:03.135Z,15.00
2019-05-23T10:01:03.089Z,15.50
2019-05-23T10:02:03.171Z,16.00
2019-05-23T10:03:03.127Z,14.69
2019-05-23T10:04:03.066Z,15.00
2019-05-23T10:05:03.073Z,15.19
2019-05-23T10:06:03.036Z,15.69
2019-05-23T10:07:03.025Z,14.89
2019-05-23T10:08:03.019Z,15.89
2019-05-23T10:09:03.058Z,16.50
2019-05-23T10:10:02.994Z,18.60
2019-05-23T10:11:02.986Z,15.39
2019-05-23T10:12:02.972Z,15.30
2019-05-23T10:13:02.962Z,16.20
2019-05-23T10:14:02.958Z,14.50
2019-05-23T10:15:03.091Z,12.80
2019-05-23T10:16:03.221Z,13.60
2019-05-23T10:17:02.918Z,12.19
2019-05-23T10:18:02.907Z,14.50
2019-05-23T10:19:02.897Z,13.89
2019-05-23T10:20:02.885Z,14.19
2019-05-23T10:21:02.935Z,14.00
2019-05-23T10:22:02.865Z,12.89
2019-05-23T10:23:02.852Z,13.50
2019-05-23T10:24:02.855Z,13.10
2019-05-23T10:25:02.836Z,10.80
2019-05-23T10:26:02.834Z,12.60
2019-05-23T10:27:02.863Z,18.50
2019-05-23T10:28:02.801Z,60.40
2019-05-23T10:29:02.790Z,73.59
2019-05-23T10:30:02.791Z,124.40
2019-05-23T10:31:02.771Z,178.69
2019-05-23T10:32:02.759Z,180.89
2019-05-23T10:33:10.476Z,108.30
2019-05-23T10:34:27.560Z,51.50
2019-05-23T10:35:27.540Z,53.70
2019-05-23T10:36:27.529Z,59.50
2019-05-23T10:37:27.520Z,47.29
2019-05-23T10:38:29.375Z,36.50
2019-05-23T10:39:27.498Z,34.79
2019-05-23T10:40:27.486Z,29.39
2019-05-23T10:41:27.476Z,30.10
2019-05-23T10:42:27.470Z,28.39
2019-05-23T10:43:27.453Z,26.10
2019-05-23T10:44:27.497Z,21.89
2019-05-23T10:45:27.432Z,16.89
2019-05-23T10:46:27.422Z,17.50
2019-05-23T10:47:27.413Z,13.89
2019-05-23T10:48:27.409Z,12.89
2019-05-23T10:49:27.393Z,12.80
2019-05-23T10:50:41.979Z,13.00
2019-05-23T10:51:52.183Z,11.39
2019-05-23T10:52:52.178Z,11.89
2019-05-23T10:53:52.166Z,13.60
2019-05-23T10:54:52.154Z,13.19
2019-05-23T10:55:52.189Z,12.60
2019-05-23T10:56:52.129Z,12.19
2019-05-23T10:57:52.115Z,12.69
2019-05-23T10:58:52.104Z,13.10
2019-05-23T10:59:52.093Z,13.30
2019-05-23T11:00:52.082Z,14.89
2019-05-23T11:01:52.127Z,15.39
2019-05-23T11:02:52.061Z,14.60
2019-05-23T11:03:52.052Z,15.60
2019-05-23T11:04:52.216Z,15.00
2019-05-23T11:05:52.029Z,15.00
2019-05-23T11:06:52.018Z,15.50
2019-05-23T11:07:52.158Z,13.60
2019-05-23T11:08:52.000Z,14.50
2019-05-23T11:09:51.988Z,14.80
2019-05-23T11:10:51.981Z,14.39
2019-05-23T11:11:51.970Z,14.50
2019-05-23T11:12:51.956Z,14.60
2019-05-23T11:13:51.998Z,14.69
2019-05-23T11:14:51.933Z,14.39
2019-05-23T11:15:51.924Z,15.00
2019-05-23T11:16:51.917Z,14.60
2019-05-23T11:17:53.761Z,14.60
2019-05-23T11:18:51.889Z,14.80
2019-05-23T11:19:51.935Z,14.60
2019-05-23T11:20:51.868Z,13.00
2019-05-23T11:21:51.857Z,13.89
2019-05-23T11:22:51.847Z,13.69
2019-05-23T11:23:51.835Z,12.69
2019-05-23T11:24:51.826Z,13.89
2019-05-23T11:25:52.034Z,13.30
2019-05-23T11:26:51.806Z,12.69
2019-05-23T11:27:51.800Z,12.69
2019-05-23T11:28:51.784Z,12.60
2019-05-23T11:29:51.771Z,12.89
2019-05-23T11:30:52.314Z,12.89
2019-05-23T11:31:51.755Z,13.19
2019-05-23T11:32:51.761Z,13.00
2019-05-23T11:33:51.731Z,12.80
2019-05-23T11:34:51.720Z,13.69
2019-05-23T11:35:51.713Z,12.80
2019-05-23T11:36:51.749Z,12.30
2019-05-23T11:37:51.691Z,11.00
2019-05-23T11:38:51.679Z,11.50
2019-05-23T11:39:51.762Z,13.10
2019-05-23T11:40:51.658Z,13.00
2019-05-23T11:41:51.653Z,11.89
2019-05-23T11:42:52.793Z,12.30
2019-05-23T11:43:51.629Z,12.50
2019-05-23T11:44:51.635Z,12.60
2019-05-23T11:45:51.608Z,12.30
2019-05-23T11:46:51.739Z,12.30
2019-05-23T11:47:51.708Z,11.89
2019-05-23T11:48:51.974Z,13.69
2019-05-23T11:49:51.563Z,12.19
2019-05-23T11:50:51.556Z,11.80
2019-05-23T11:51:51.544Z,12.89
2019-05-23T11:52:51.533Z,12.30
2019-05-23T11:54:06.885Z,12.00
2019-05-23T11:54:52.661Z,12.30
2019-05-23T11:55:54.455Z,10.80
2019-05-23T11:56:51.493Z,12.19
2019-05-23T11:57:51.485Z,11.80
2019-05-23T11:58:51.572Z,12.50
2019-05-23T11:59:51.483Z,12.39
2019-05-23T12:00:51.596Z,12.80
2019-05-23T12:01:51.442Z,12.50
2019-05-23T12:02:51.442Z,11.89
2019-05-23T12:03:51.420Z,11.69
2019-05-23T12:04:51.416Z,13.00
2019-05-23T12:05:51.399Z,12.00
2019-05-23T12:06:55.883Z,12.19
2019-05-23T12:07:51.397Z,11.50
2019-05-23T12:08:51.371Z,10.39
2019-05-23T12:09:51.359Z,10.39
2019-05-23T12:10:51.349Z,9.89
2019-05-23T12:11:51.363Z,10.00
2019-05-23T12:12:51.382Z,8.60
2019-05-23T12:13:51.320Z,10.60
2019-05-23T12:14:51.311Z,10.89
2019-05-23T12:15:51.299Z,10.19
2019-05-23T12:16:51.290Z,9.69
2019-05-23T12:17:51.340Z,10.69
2019-05-23T12:18:51.358Z,10.80
2019-05-23T12:19:51.571Z,10.00
2019-05-23T12:20:51.246Z,10.50
2019-05-23T12:21:51.238Z,10.19
2019-05-23T12:22:51.247Z,10.50
2019-05-23T12:23:51.216Z,10.50
2019-05-23T12:24:51.454Z,10.19
2019-05-23T12:25:51.200Z,10.30
2019-05-23T12:26:51.182Z,9.89
2019-05-23T12:27:51.183Z,10.19
2019-05-23T12:28:51.165Z,10.19
2019-05-23T12:29:51.155Z,10.19
2019-05-23T12:30:51.244Z,10.30
2019-05-23T12:31:51.136Z,10.60
2019-05-23T12:32:51.125Z,10.69
2019-05-23T12:33:51.117Z,9.60
2019-05-23T12:35:08.513Z,9.69
2019-05-23T12:36:15.956Z,10.00
2019-05-23T12:37:19.944Z,10.00
2019-05-23T12:38:15.934Z,10.19
2019-05-23T12:39:15.925Z,10.00
2019-05-23T12:40:15.911Z,9.89
2019-05-23T12:41:16.052Z,9.00
2019-05-23T12:42:15.893Z,9.30
2019-05-23T12:43:15.881Z,10.19
2019-05-23T12:44:17.806Z,10.80
2019-05-23T12:45:15.871Z,11.19
2019-05-23T12:46:15.858Z,11.19
2019-05-23T12:47:15.941Z,10.60
2019-05-23T12:48:15.841Z,11.39
2019-05-23T12:49:15.816Z,10.80
2019-05-23T12:50:15.807Z,11.60
2019-05-23T12:51:15.809Z,11.50
2019-05-23T12:52:15.787Z,10.89
2019-05-23T12:53:15.823Z,11.00
2019-05-23T12:54:15.763Z,11.00
2019-05-23T12:55:15.752Z,10.10
2019-05-23T12:56:15.952Z,11.19
2019-05-23T12:57:15.740Z,10.50
2019-05-23T12:58:15.725Z,10.80
2019-05-23T12:59:15.862Z,10.10
2019-05-23T13:00:15.702Z,10.30
2019-05-23T13:01:15.696Z,10.89
2019-05-23T13:02:15.683Z,10.69
2019-05-23T13:03:15.669Z,10.60
2019-05-23T13:04:15.663Z,11.00
2019-05-23T13:05:15.749Z,10.69
2019-05-23T13:06:15.643Z,11.10
2019-05-23T13:07:15.645Z,11.69